createdAt,value
2022-12-25T00:01:41.026Z,101446.56
2022-12-25T00:04:11.030Z,101452.72
2022-12-25T00:06:40.777Z,101460.75
2022-12-25T00:09:10.965Z,101463.50
2022-12-25T00:11:40.586Z,101465.19
2022-12-25T00:14:10.578Z,101464.25
2022-12-25T00:16:41.696Z,101465.97
2022-12-25T00:19:11.905Z,101466.16
2022-12-25T00:21:41.556Z,101468.03
2022-12-25T00:24:11.558Z,101475.03
2022-12-25T00:26:41.286Z,101482.84
2022-12-25T00:29:13.606Z,101495.81
2022-12-25T00:31:44.644Z,101492.44
2022-12-25T00:34:15.050Z,101495.09
2022-12-25T00:36:44.757Z,101500.25
2022-12-25T00:39:14.955Z,101502.91
2022-12-25T00:42:01.685Z,101493.38
2022-12-25T00:44:31.810Z,101496.16
2022-12-25T00:47:03.182Z,101498.81
2022-12-25T00:49:33.565Z,101498.88
2022-12-25T00:52:03.072Z,101500.59
2022-12-25T00:54:32.938Z,101498.88
2022-12-25T00:57:02.755Z,101515.41
2022-12-25T00:59:33.061Z,101506.78
2022-12-25T01:02:17.897Z,101498.88
2022-12-25T01:04:47.819Z,101511.09
2022-12-25T01:07:18.341Z,101512.78
2022-12-25T01:10:06.012Z,101517.22
2022-12-25T01:12:40.364Z,101524.22
2022-12-25T01:15:11.381Z,101533.75
2022-12-25T01:17:42.598Z,101533.94
2022-12-25T01:20:12.986Z,101519.06
2022-12-25T01:22:42.676Z,101527.53
2022-12-25T01:25:13.294Z,101531.03
2022-12-25T01:27:42.978Z,101518.09
2022-12-25T01:30:13.195Z,101512.13
2022-12-25T01:32:44.241Z,101506.91
2022-12-25T01:35:14.292Z,101503.41
2022-12-25T01:37:43.974Z,101512.88
2022-12-25T01:40:14.228Z,101512.06
2022-12-25T01:42:43.803Z,101518.16
2022-12-25T01:45:29.024Z,101520.00
2022-12-25T01:48:00.278Z,101534.81
2022-12-25T01:50:30.349Z,101529.53
2022-12-25T01:53:00.212Z,101525.97
2022-12-25T01:55:30.687Z,101520.78
2022-12-25T01:58:00.301Z,101515.69
2022-12-25T02:00:30.165Z,101530.44
2022-12-25T02:03:01.598Z,101532.16
2022-12-25T02:05:32.363Z,101531.31
2022-12-25T02:08:03.646Z,101525.28
2022-12-25T02:10:33.588Z,101535.72
2022-12-25T02:13:03.569Z,101541.84
2022-12-25T02:15:38.412Z,101553.16
2022-12-25T02:18:13.685Z,101554.06
2022-12-25T02:20:58.263Z,101532.31
2022-12-25T02:23:54.854Z,101521.72
2022-12-25T02:26:33.700Z,101524.34
2022-12-25T02:29:06.964Z,101530.31
2022-12-25T02:31:40.806Z,101530.31
2022-12-25T02:34:12.253Z,101532.91
2022-12-25T02:36:44.753Z,101525.97
2022-12-25T02:39:33.849Z,101536.41
2022-12-25T02:42:07.210Z,101538.19
2022-12-25T02:44:58.386Z,101540.78
2022-12-25T02:47:46.022Z,101534.63
2022-12-25T02:50:33.645Z,101535.59
2022-12-25T02:53:22.225Z,101527.69
2022-12-25T02:56:09.868Z,101532.03
2022-12-25T02:58:58.565Z,101532.03
2022-12-25T03:01:51.165Z,101530.38
2022-12-25T03:04:40.715Z,101533.94
2022-12-25T03:07:12.276Z,101548.75
2022-12-25T03:10:00.896Z,101545.34
2022-12-25T03:12:37.286Z,101530.59
2022-12-25T03:15:25.560Z,101532.22
2022-12-25T03:17:57.925Z,101521.88
2022-12-25T03:20:44.909Z,101534.09
2022-12-25T03:23:33.978Z,101537.81
2022-12-25T03:26:21.391Z,101535.03
2022-12-25T03:28:51.011Z,101540.19
2022-12-25T03:31:21.957Z,101544.50
2022-12-25T03:34:20.899Z,101548.91
2022-12-25T03:37:00.329Z,101555.78
2022-12-25T03:40:07.229Z,101551.44
2022-12-25T03:42:56.275Z,101553.22
2022-12-25T03:45:47.088Z,101557.59
2022-12-25T03:48:35.769Z,101564.59
2022-12-25T03:51:26.731Z,101573.38
2022-12-25T03:54:15.562Z,101578.69
2022-12-25T03:57:03.143Z,101575.19
2022-12-25T03:59:51.316Z,101579.63
2022-12-25T04:02:38.437Z,101578.81
2022-12-25T04:05:26.250Z,101582.53
2022-12-25T04:08:14.653Z,101575.53
2022-12-25T04:11:02.290Z,101572.09
2022-12-25T04:13:49.229Z,101582.66
2022-12-25T04:16:36.481Z,101579.25
2022-12-25T04:19:23.241Z,101591.53
2022-12-25T04:22:10.398Z,101588.03
2022-12-25T04:24:58.973Z,101584.66
2022-12-25T04:27:46.171Z,101581.31
2022-12-25T04:30:33.065Z,101586.59
2022-12-25T04:33:20.151Z,101579.66
2022-12-25T04:36:07.814Z,101591.03
2022-12-25T04:38:38.379Z,101590.25
2022-12-25T04:41:10.037Z,101595.53
2022-12-25T04:43:39.996Z,101585.03
2022-12-25T04:46:09.896Z,101591.13
2022-12-25T04:48:39.903Z,101581.59
2022-12-25T04:51:13.799Z,101578.09
2022-12-25T04:53:44.178Z,101583.44
2022-12-25T04:56:15.387Z,101584.31
2022-12-25T04:58:45.806Z,101586.03
2022-12-25T05:01:15.644Z,101580.00
2022-12-25T05:03:45.827Z,101588.66
2022-12-25T05:06:15.434Z,101588.72
2022-12-25T05:08:45.430Z,101593.09
2022-12-25T05:11:17.286Z,101602.75
2022-12-25T05:13:47.272Z,101600.88
2022-12-25T05:16:17.985Z,101601.75
2022-12-25T05:18:50.047Z,101598.25
2022-12-25T05:21:20.244Z,101594.03
2022-12-25T05:23:51.515Z,101600.03
2022-12-25T05:26:24.021Z,101599.16
2022-12-25T05:28:54.031Z,101592.22
2022-12-25T05:31:23.897Z,101594.03
2022-12-25T05:33:54.292Z,101594.03
2022-12-25T05:36:23.917Z,101593.19
2022-12-25T05:38:53.852Z,101605.34
2022-12-25T05:41:27.887Z,101599.16
2022-12-25T05:44:02.187Z,101606.06
2022-12-25T05:46:31.875Z,101605.34
2022-12-25T05:49:01.863Z,101595.72
2022-12-25T05:51:32.143Z,101600.94
2022-12-25T05:54:02.060Z,101609.72
2022-12-25T05:56:33.103Z,101618.44
2022-12-25T05:59:03.212Z,101616.84
2022-12-25T06:01:32.866Z,101621.88
2022-12-25T06:04:07.003Z,101624.41
2022-12-25T06:06:39.805Z,101625.31
2022-12-25T06:09:10.392Z,101619.94
2022-12-25T06:11:41.454Z,101630.38
2022-12-25T06:14:13.452Z,101633.06
2022-12-25T06:16:43.164Z,101630.38
2022-12-25T06:19:13.227Z,101621.66
2022-12-25T06:21:43.109Z,101627.72
2022-12-25T06:24:19.181Z,101632.22
2022-12-25T06:26:52.208Z,101628.72
2022-12-25T06:29:22.146Z,101635.59
2022-12-25T06:31:57.363Z,101646.84
2022-12-25T06:34:27.633Z,101643.41
2022-12-25T06:36:57.248Z,101644.38
2022-12-25T06:39:27.147Z,101653.91
2022-12-25T06:41:58.229Z,101659.22
2022-12-25T06:44:28.267Z,101658.31
2022-12-25T06:46:57.832Z,101659.97
2022-12-25T06:49:27.933Z,101663.41
2022-12-25T06:51:57.518Z,101670.25
2022-12-25T06:54:27.515Z,101668.63
2022-12-25T06:56:58.667Z,101672.09
2022-12-25T06:59:28.708Z,101680.75
2022-12-25T07:01:59.063Z,101687.69
2022-12-25T07:04:32.358Z,101685.91
2022-12-25T07:07:08.131Z,101679.88
2022-12-25T07:09:39.466Z,101686.88
2022-12-25T07:12:17.332Z,101689.34
2022-12-25T07:14:49.359Z,101684.94
2022-12-25T07:17:18.837Z,101688.38
2022-12-25T07:19:48.825Z,101697.06
2022-12-25T07:22:18.607Z,101707.59
2022-12-25T07:24:48.587Z,101716.22
2022-12-25T07:27:19.469Z,101711.16
2022-12-25T07:29:49.400Z,101720.78
2022-12-25T07:32:19.601Z,101729.50
2022-12-25T07:34:49.534Z,101734.72
2022-12-25T07:37:19.099Z,101727.84
2022-12-25T07:39:49.549Z,101740.97
2022-12-25T07:42:25.030Z,101743.72
2022-12-25T07:44:57.430Z,101744.59
2022-12-25T07:47:27.143Z,101751.53
2022-12-25T07:49:57.134Z,101741.09
2022-12-25T07:52:26.792Z,101742.94
2022-12-25T07:54:56.735Z,101746.50
2022-12-25T07:57:28.059Z,101746.63
2022-12-25T07:59:58.059Z,101743.25
2022-12-25T08:02:29.354Z,101738.13
2022-12-25T08:04:59.685Z,101736.34
2022-12-25T08:07:29.244Z,101739.97
2022-12-25T08:09:59.161Z,101751.38
2022-12-25T08:12:30.234Z,101754.06
2022-12-25T08:15:00.258Z,101757.63
2022-12-25T08:17:30.087Z,101755.03
2022-12-25T08:20:00.306Z,101749.03
2022-12-25T08:22:29.905Z,101753.53
2022-12-25T08:24:59.895Z,101748.44
2022-12-25T08:27:30.881Z,101748.44
2022-12-25T08:30:00.905Z,101750.31
2022-12-25T08:32:30.615Z,101760.06
2022-12-25T08:35:00.631Z,101770.72
2022-12-25T08:37:31.482Z,101770.56
2022-12-25T08:40:01.435Z,101768.06
2022-12-25T08:42:32.672Z,101756.72
2022-12-25T08:45:02.878Z,101755.94
2022-12-25T08:47:32.628Z,101751.69
2022-12-25T08:50:02.580Z,101757.97
2022-12-25T08:52:32.545Z,101760.78
2022-12-25T08:55:02.499Z,101757.41
2022-12-25T08:57:33.525Z,101758.31
2022-12-25T09:00:04.125Z,101752.19
2022-12-25T09:02:33.981Z,101752.19
2022-12-25T09:05:04.130Z,101746.91
2022-12-25T09:07:33.773Z,101745.19
2022-12-25T09:10:03.774Z,101766.91
2022-12-25T09:12:35.054Z,101783.41
2022-12-25T09:15:06.034Z,101780.91
2022-12-25T09:17:35.809Z,101780.97
2022-12-25T09:20:06.325Z,101778.41
2022-12-25T09:22:36.053Z,101796.63
2022-12-25T09:25:06.337Z,101800.97
2022-12-25T09:27:37.581Z,101798.41
2022-12-25T09:30:08.466Z,101795.91
2022-12-25T09:32:40.544Z,101784.63
2022-12-25T09:35:10.729Z,101782.91
2022-12-25T09:37:40.569Z,101779.63
2022-12-25T09:40:12.253Z,101777.91
2022-12-25T09:42:43.623Z,101780.53
2022-12-25T09:45:16.311Z,101785.81
2022-12-25T09:47:48.448Z,101786.63
2022-12-25T09:50:20.472Z,101792.94
2022-12-25T09:52:52.235Z,101788.53
2022-12-25T09:55:23.503Z,101785.09
2022-12-25T09:57:56.155Z,101779.75
2022-12-25T10:00:27.324Z,101787.81
2022-12-25T10:03:08.046Z,101786.97
2022-12-25T10:05:49.194Z,101794.88
2022-12-25T10:08:24.217Z,101802.78
2022-12-25T10:11:00.385Z,101790.75
2022-12-25T10:13:44.627Z,101791.78
2022-12-25T10:16:19.582Z,101798.72
2022-12-25T10:18:57.573Z,101794.53
2022-12-25T10:21:28.374Z,101798.09
2022-12-25T10:24:05.611Z,101794.59
2022-12-25T10:26:35.942Z,101793.03
2022-12-25T10:29:11.213Z,101796.72
2022-12-25T10:31:42.182Z,101794.09
2022-12-25T10:34:13.524Z,101800.38
2022-12-25T10:36:45.325Z,101793.59
2022-12-25T10:39:17.821Z,101786.53
2022-12-25T10:41:59.483Z,101782.38
2022-12-25T10:44:30.676Z,101782.47
2022-12-25T10:47:01.793Z,101776.53
2022-12-25T10:49:33.339Z,101779.19
2022-12-25T10:52:04.233Z,101773.97
2022-12-25T10:54:35.334Z,101768.00
2022-12-25T10:57:06.346Z,101760.97
2022-12-25T10:59:43.223Z,101754.84
2022-12-25T11:02:16.600Z,101762.13
2022-12-25T11:04:46.418Z,101756.88
2022-12-25T11:07:21.074Z,101758.69
2022-12-25T11:09:51.593Z,101765.72
2022-12-25T11:12:22.574Z,101771.00
2022-12-25T11:14:57.808Z,101777.22
2022-12-25T11:17:28.397Z,101777.38
2022-12-25T11:19:59.024Z,101775.53
2022-12-25T11:22:30.023Z,101784.28
2022-12-25T11:25:12.936Z,101772.00
2022-12-25T11:27:48.952Z,101772.16
2022-12-25T11:30:23.435Z,101762.59
2022-12-25T11:32:56.491Z,101758.94
2022-12-25T11:35:29.722Z,101758.19
2022-12-25T11:37:59.827Z,101758.19
2022-12-25T11:40:30.695Z,101756.53
2022-12-25T11:43:08.203Z,101763.47
2022-12-25T11:45:40.754Z,101756.59
2022-12-25T11:48:16.285Z,101738.22
2022-12-25T11:50:48.444Z,101743.47
2022-12-25T11:53:20.826Z,101761.91
2022-12-25T11:55:55.080Z,101761.06
2022-12-25T11:58:26.414Z,101752.34
2022-12-25T12:00:58.865Z,101761.91
2022-12-25T12:03:31.294Z,101746.28
2022-12-25T12:06:03.939Z,101757.63
2022-12-25T12:08:35.667Z,101757.56
2022-12-25T12:11:17.588Z,101764.44
2022-12-25T12:14:05.357Z,101773.88
2022-12-25T12:16:37.050Z,101774.56
2022-12-25T12:19:14.310Z,101782.41
2022-12-25T12:21:50.192Z,101787.56
2022-12-25T12:24:21.232Z,101785.00
2022-12-25T12:27:01.458Z,101791.91
2022-12-25T12:29:32.770Z,101791.84
2022-12-25T12:32:05.449Z,101790.97
2022-12-25T12:34:40.700Z,101808.25
2022-12-25T12:37:22.868Z,101815.16
2022-12-25T12:39:55.666Z,101819.44
2022-12-25T12:42:27.483Z,101824.50
2022-12-25T12:44:58.842Z,101806.16
2022-12-25T12:47:31.671Z,101813.09
2022-12-25T12:50:02.960Z,101804.50
2022-12-25T12:52:34.023Z,101804.59
2022-12-25T12:55:05.823Z,101802.03
2022-12-25T12:57:40.137Z,101792.69
2022-12-25T13:00:18.872Z,101803.81
2022-12-25T13:03:19.177Z,101798.66
2022-12-25T13:05:52.011Z,101803.03
2022-12-25T13:08:29.992Z,101802.91
2022-12-25T13:11:06.933Z,101801.13
2022-12-25T13:13:38.192Z,101798.53
2022-12-25T13:16:08.566Z,101796.81
2022-12-25T13:18:40.862Z,101790.69
2022-12-25T13:21:17.570Z,101791.63
2022-12-25T13:23:47.162Z,101795.97
2022-12-25T13:26:18.099Z,101797.75
2022-12-25T13:28:48.621Z,101808.16
2022-12-25T13:31:20.891Z,101795.09
2022-12-25T13:33:54.296Z,101789.78
2022-12-25T13:36:24.392Z,101787.09
2022-12-25T13:38:55.651Z,101788.91
2022-12-25T13:41:45.304Z,101793.22
2022-12-25T13:44:18.168Z,101794.88
2022-12-25T13:46:48.689Z,101796.53
2022-12-25T13:49:21.502Z,101798.25
2022-12-25T13:51:52.090Z,101784.34
2022-12-25T13:54:21.675Z,101780.84
2022-12-25T13:56:52.374Z,101779.97
2022-12-25T13:59:23.093Z,101787.88
2022-12-25T14:01:54.440Z,101791.38
2022-12-25T14:04:25.952Z,101797.47
2022-12-25T14:06:56.056Z,101807.88
2022-12-25T14:09:25.785Z,101806.22
2022-12-25T14:11:55.812Z,101806.09
2022-12-25T14:14:26.557Z,101803.53
2022-12-25T14:16:57.925Z,101803.47
2022-12-25T14:19:30.666Z,101811.22
2022-12-25T14:22:01.800Z,101819.16
2022-12-25T14:24:35.583Z,101822.59
2022-12-25T14:27:07.486Z,101825.22
2022-12-25T14:29:39.380Z,101819.91
2022-12-25T14:32:14.393Z,101814.75
2022-12-25T14:34:46.611Z,101815.56
2022-12-25T14:37:18.204Z,101811.31
2022-12-25T14:39:55.516Z,101815.66
2022-12-25T14:42:26.352Z,101813.03
2022-12-25T14:45:00.719Z,101806.00
2022-12-25T14:47:31.461Z,101810.34
2022-12-25T14:50:02.840Z,101804.22
2022-12-25T14:52:39.238Z,101811.09
2022-12-25T14:55:18.916Z,101800.53
2022-12-25T14:57:49.822Z,101804.84
2022-12-25T15:00:24.026Z,101808.28
2022-12-25T15:02:56.023Z,101803.94
2022-12-25T15:05:29.384Z,101793.44
2022-12-25T15:08:00.931Z,101786.47
2022-12-25T15:13:21.024Z,101764.75
2022-12-25T15:15:52.849Z,101769.09
2022-12-25T15:18:24.628Z,101770.88
2022-12-25T15:20:56.573Z,101770.06
2022-12-25T15:23:26.929Z,101776.19
2022-12-25T15:25:56.692Z,101783.13
2022-12-25T15:28:26.656Z,101778.66
2022-12-25T15:30:56.408Z,101780.38
2022-12-25T15:33:26.503Z,101778.66
2022-12-25T15:35:57.976Z,101775.16
2022-12-25T15:38:28.013Z,101781.19
2022-12-25T15:40:57.690Z,101778.59
2022-12-25T15:43:42.860Z,101781.25
2022-12-25T15:46:12.522Z,101774.31
2022-12-25T15:48:42.572Z,101785.59
2022-12-25T15:51:13.571Z,101788.25
2022-12-25T15:53:43.601Z,101781.31
2022-12-25T15:56:13.703Z,101777.06
2022-12-25T15:58:44.012Z,101780.59
2022-12-25T16:01:16.061Z,101777.13
2022-12-25T16:03:46.436Z,101784.16
2022-12-25T16:06:18.939Z,101787.72
2022-12-25T16:08:49.042Z,101797.38
2022-12-25T16:11:18.777Z,101795.63
2022-12-25T16:13:48.754Z,101806.97
2022-12-25T16:16:19.371Z,101796.47
2022-12-25T16:18:49.692Z,101785.19
2022-12-25T16:21:22.480Z,101779.13
2022-12-25T16:23:52.770Z,101773.84
2022-12-25T16:26:22.307Z,101772.13
2022-12-25T16:28:52.422Z,101768.69
2022-12-25T16:31:22.186Z,101760.84
2022-12-25T16:33:52.383Z,101752.22
2022-12-25T16:36:26.895Z,101744.34
2022-12-25T16:38:57.326Z,101743.50
2022-12-25T16:41:27.033Z,101745.22
2022-12-25T16:43:56.919Z,101752.16
2022-12-25T16:46:26.575Z,101757.44
2022-12-25T16:48:56.972Z,101750.59
2022-12-25T16:51:28.071Z,101753.13
2022-12-25T16:53:58.231Z,101754.00
2022-12-25T16:56:31.112Z,101751.41
2022-12-25T16:59:01.292Z,101747.88
2022-12-25T17:01:31.150Z,101747.88
2022-12-25T17:04:02.620Z,101744.38
2022-12-25T17:06:33.803Z,101747.09
2022-12-25T17:09:03.995Z,101750.59
2022-12-25T17:11:34.051Z,101748.88
2022-12-25T17:14:05.604Z,101747.97
2022-12-25T17:16:37.547Z,101738.41
2022-12-25T17:19:09.940Z,101734.03
2022-12-25T17:21:41.109Z,101734.09
2022-12-25T17:24:11.801Z,101739.31
2022-12-25T17:26:41.983Z,101734.16
2022-12-25T17:29:15.949Z,101731.53
2022-12-25T17:31:50.122Z,101729.81
2022-12-25T17:34:20.348Z,101733.38
2022-12-25T17:36:51.498Z,101722.84
2022-12-25T17:39:21.535Z,101712.41
2022-12-25T17:41:51.893Z,101718.53
2022-12-25T17:44:22.549Z,101715.91
2022-12-25T17:46:52.498Z,101709.78
2022-12-25T17:49:23.161Z,101717.63
2022-12-25T17:51:55.352Z,101706.28
2022-12-25T17:54:25.449Z,101710.69
2022-12-25T17:56:55.112Z,101704.63
2022-12-25T17:59:29.756Z,101701.13
2022-12-25T18:01:59.742Z,101695.88
2022-12-25T18:04:29.891Z,101685.44
2022-12-25T18:07:01.050Z,101690.66
2022-12-25T18:09:31.055Z,101685.44
2022-12-25T18:12:00.707Z,101691.56
2022-12-25T18:14:30.760Z,101691.66
2022-12-25T18:17:00.252Z,101694.25
2022-12-25T18:19:30.376Z,101679.47
2022-12-25T18:22:01.822Z,101685.59
2022-12-25T18:24:31.769Z,101690.81
2022-12-25T18:27:01.686Z,101690.81
2022-12-25T18:29:31.683Z,101683.84
2022-12-25T18:32:01.355Z,101681.25
2022-12-25T18:34:31.758Z,101680.41
2022-12-25T18:37:04.312Z,101677.81
2022-12-25T18:39:34.690Z,101670.06
2022-12-25T18:42:21.643Z,101664.94
2022-12-25T18:44:51.800Z,101660.59
2022-12-25T18:47:21.495Z,101655.38
2022-12-25T18:49:51.124Z,101651.03
2022-12-25T18:52:49.351Z,101645.91
2022-12-25T18:55:12.653Z,101644.28
2022-12-25T18:57:42.647Z,101640.09
2022-12-25T19:00:12.642Z,101635.78
2022-12-25T19:02:42.956Z,101640.34
2022-12-25T19:05:12.834Z,101635.31
2022-12-25T19:07:44.613Z,101628.59
2022-12-25T19:10:14.274Z,101621.69
2022-12-25T19:12:44.400Z,101614.81
2022-12-25T19:15:14.080Z,101621.13
2022-12-25T19:17:44.179Z,101620.16
2022-12-25T19:20:14.037Z,101621.94
2022-12-25T19:22:45.650Z,101609.69
2022-12-25T19:25:15.264Z,101605.50
2022-12-25T19:27:45.243Z,101605.50
2022-12-25T19:30:15.241Z,101588.97
2022-12-25T19:32:45.263Z,101585.56
2022-12-25T19:35:14.948Z,101586.44
2022-12-25T19:37:46.403Z,101583.97
2022-12-25T19:40:16.205Z,101579.69
2022-12-25T19:42:46.355Z,101579.69
2022-12-25T19:45:15.970Z,101584.16
2022-12-25T19:47:46.459Z,101576.22
2022-12-25T19:50:16.165Z,101576.22
2022-12-25T19:52:47.614Z,101578.03
2022-12-25T19:55:20.364Z,101570.94
2022-12-25T19:57:50.293Z,101572.66
2022-12-25T20:00:20.090Z,101588.38
2022-12-25T20:02:50.929Z,101578.69
2022-12-25T20:05:21.607Z,101566.50
2022-12-25T20:07:53.043Z,101570.91
2022-12-25T20:10:22.764Z,101566.56
2022-12-25T20:12:53.313Z,101566.56
2022-12-25T20:15:22.925Z,101558.75
2022-12-25T20:17:54.647Z,101560.47
2022-12-25T20:20:24.302Z,101551.75
2022-12-25T20:22:56.263Z,101548.28
2022-12-25T20:25:26.964Z,101561.41
2022-12-25T20:27:56.934Z,101553.56
2022-12-25T20:30:26.612Z,101550.06
2022-12-25T20:32:58.216Z,101550.91
2022-12-25T20:35:27.847Z,101555.28
2022-12-25T20:37:59.248Z,101559.72
2022-12-25T20:40:28.923Z,101545.72
2022-12-25T20:42:58.861Z,101554.50
2022-12-25T20:45:28.424Z,101550.16
2022-12-25T20:47:58.314Z,101548.34
2022-12-25T20:50:28.106Z,101546.66
2022-12-25T20:52:59.452Z,101544.91
2022-12-25T20:55:29.239Z,101537.97
2022-12-25T20:57:59.125Z,101537.06
2022-12-25T21:00:29.051Z,101527.53
2022-12-25T21:02:59.149Z,101514.47
2022-12-25T21:05:28.952Z,101508.41
2022-12-25T21:08:00.593Z,101504.06
2022-12-25T21:10:30.295Z,101506.66
2022-12-25T21:13:00.392Z,101497.22
2022-12-25T21:15:30.157Z,101497.28
2022-12-25T21:18:00.093Z,101493.84
2022-12-25T21:20:29.876Z,101498.28
2022-12-25T21:23:01.221Z,101495.72
2022-12-25T21:25:31.101Z,101488.75
2022-12-25T21:28:01.145Z,101482.63
2022-12-25T21:30:30.988Z,101473.91
2022-12-25T21:33:18.260Z,101466.88
2022-12-25T21:35:48.023Z,101461.69
2022-12-25T21:38:19.516Z,101452.97
2022-12-25T21:40:49.170Z,101443.44
2022-12-25T21:43:19.156Z,101435.59
2022-12-25T21:45:48.889Z,101427.78
2022-12-25T21:48:18.976Z,101422.59
2022-12-25T21:51:05.697Z,101412.03
2022-12-25T21:53:37.187Z,101399.84
2022-12-25T21:56:07.043Z,101396.50
2022-12-25T21:58:37.059Z,101393.88
2022-12-25T22:01:07.232Z,101388.66
2022-12-25T22:03:37.195Z,101385.19
2022-12-25T22:06:24.366Z,101384.47
2022-12-25T22:08:55.842Z,101387.09
2022-12-25T22:11:44.526Z,101391.41
2022-12-25T22:14:52.397Z,101388.03
2022-12-25T22:17:42.357Z,101363.63
2022-12-25T22:20:13.481Z,101367.13
2022-12-25T22:22:43.701Z,101357.66
2022-12-25T22:25:15.667Z,101356.81
2022-12-25T22:27:45.926Z,101348.09
2022-12-25T22:30:17.856Z,101342.09
2022-12-25T22:32:48.039Z,101333.41
2022-12-25T22:35:18.880Z,101320.31
2022-12-25T22:37:49.947Z,101314.19
2022-12-25T22:40:21.900Z,101320.31
2022-12-25T22:42:54.779Z,101309.03
2022-12-25T22:45:24.839Z,101299.38
2022-12-25T22:47:54.718Z,101295.94
2022-12-25T22:50:25.528Z,101305.53
2022-12-25T22:52:55.255Z,101320.38
2022-12-25T22:55:26.721Z,101316.00
2022-12-25T22:57:58.361Z,101308.97
2022-12-25T23:00:28.838Z,101308.06
2022-12-25T23:02:58.729Z,101298.44
2022-12-25T23:05:28.975Z,101296.72
2022-12-25T23:07:58.832Z,101294.94
2022-12-25T23:10:30.502Z,101230.22
2022-12-25T23:13:17.229Z,101287.25
2022-12-25T23:15:48.357Z,101288.22
2022-12-25T23:18:35.180Z,101279.47
2022-12-25T23:21:22.661Z,101287.44
2022-12-25T23:24:09.630Z,101286.63
2022-12-25T23:26:41.071Z,101296.22
2022-12-25T23:29:27.739Z,101289.22
2022-12-25T23:31:58.838Z,101279.66
2022-12-25T23:34:28.459Z,101279.66
2022-12-25T23:36:58.638Z,101269.31
2022-12-25T23:39:28.838Z,101265.00
2022-12-25T23:42:00.493Z,101272.94
2022-12-25T23:44:30.230Z,101258.16
2022-12-25T23:47:00.362Z,101273.03
2022-12-25T23:49:30.869Z,101265.22
2022-12-25T23:52:00.928Z,101250.41
2022-12-25T23:54:31.604Z,101248.59
2022-12-25T23:57:03.101Z,101256.59
2022-12-25T23:59:33.070Z,101255.75
